AQQ9 IFIS: Internet Flight Information System
logo dgac
Miércoles 28 de Febrero del 2024
Buscar por aerodromo o helipuerto
Ingrese nombre de aeródromo, localidad o designador OACI:
METAR del 27-02-2024 a las 20:00 UTC
Para mayor información visite www.meteochile.gob.cl
METAR SCGZ 272000Z 05014KT 010V070 9999 BKN040 OVC080 13/08 Q0997
Viento: dirección 050 grados, velocidad 14 nudos
Viento con dirección variable entre 010 y 070 grados
Visibilidad: 10 km o más
Nubes: Nublado a 4000 pies sobre el nivel del aeródromo
Nubes: Cubierto a 8000 pies sobre el nivel del aeródromo
Temperatura: 13 °C
Rocío: 8 °C
Humedad_relativa: 72%
Presión: 997 hPa
METAR del 27-02-2024 a las 19:00 UTC
Para mayor información visite www.meteochile.gob.cl
METAR SCGZ 271900Z 05013KT 9999 SCT040 BKN080 13/09 Q0998
Viento: dirección 050 grados, velocidad 13 nudos
Visibilidad: 10 km o más
Nubes: Nubosidad parcial a 4000 pies sobre el nivel del aeródromo
Nubes: Nublado a 8000 pies sobre el nivel del aeródromo
Temperatura: 13 °C
Rocío: 9 °C
Humedad_relativa: 77%
Presión: 998 hPa
METAR del 27-02-2024 a las 18:00 UTC
Para mayor información visite www.meteochile.gob.cl
METAR SCGZ 271800Z 15007KT 9999 FEW050 BKN083 BKN100 14/08 Q1000
Viento: dirección 150 grados, velocidad 7 nudos
Visibilidad: 10 km o más
Nubes: Escasa nubosidad a 5000 pies sobre el nivel del aeródromo
Nubes: Nublado a 8300 pies sobre el nivel del aeródromo
Nubes: Nublado a 10000 pies sobre el nivel del aeródromo
Temperatura: 14 °C
Rocío: 8 °C
Humedad_relativa: 67%
Presión: 1000 hPa
METAR del 27-02-2024 a las 17:00 UTC
Para mayor información visite www.meteochile.gob.cl
METAR SCGZ 271700Z 06003KT 9999 FEW036 SCT070 BKN100 14/08 Q1000
Viento: dirección 060 grados, velocidad 3 nudos
Visibilidad: 10 km o más
Nubes: Escasa nubosidad a 3600 pies sobre el nivel del aeródromo
Nubes: Nubosidad parcial a 7000 pies sobre el nivel del aeródromo
Nubes: Nublado a 10000 pies sobre el nivel del aeródromo
Temperatura: 14 °C
Rocío: 8 °C
Humedad_relativa: 67%
Presión: 1000 hPa
METAR del 27-02-2024 a las 16:00 UTC
Para mayor información visite www.meteochile.gob.cl
METAR SCGZ 271600Z 27010KT 9999 FEW036 SCT073 BKN100 15/08 Q1001
Viento: dirección 270 grados, velocidad 10 nudos
Visibilidad: 10 km o más
Nubes: Escasa nubosidad a 3600 pies sobre el nivel del aeródromo
Nubes: Nubosidad parcial a 7300 pies sobre el nivel del aeródromo
Nubes: Nublado a 10000 pies sobre el nivel del aeródromo
Temperatura: 15 °C
Rocío: 8 °C
Humedad_relativa: 63%
Presión: 1001 hPa
METAR del 27-02-2024 a las 15:00 UTC
Para mayor información visite www.meteochile.gob.cl
METAR SCGZ 271500Z 24009KT 9999 FEW036 SCT076 BKN100 15/08 Q1002
Viento: dirección 240 grados, velocidad 9 nudos
Visibilidad: 10 km o más
Nubes: Escasa nubosidad a 3600 pies sobre el nivel del aeródromo
Nubes: Nubosidad parcial a 7600 pies sobre el nivel del aeródromo
Nubes: Nublado a 10000 pies sobre el nivel del aeródromo
Temperatura: 15 °C
Rocío: 8 °C
Humedad_relativa: 63%
Presión: 1002 hPa
METAR del 27-02-2024 a las 14:00 UTC
Para mayor información visite www.meteochile.gob.cl
METAR SCGZ 271400Z 27005KT 180V340 9999 FEW040 SCT073 BKN080 16/09 Q1002
Viento: dirección 270 grados, velocidad 5 nudos
Viento con dirección variable entre 180 y 340 grados
Visibilidad: 10 km o más
Nubes: Escasa nubosidad a 4000 pies sobre el nivel del aeródromo
Nubes: Nubosidad parcial a 7300 pies sobre el nivel del aeródromo
Nubes: Nublado a 8000 pies sobre el nivel del aeródromo
Temperatura: 16 °C
Rocío: 9 °C
Humedad_relativa: 63%
Presión: 1002 hPa
METAR del 27-02-2024 a las 13:00 UTC
Para mayor información visite www.meteochile.gob.cl
METAR SCGZ 271300Z 07006KT 9999 FEW036 SCT080 BKN200 15/10 Q1003
Viento: dirección 070 grados, velocidad 6 nudos
Visibilidad: 10 km o más
Nubes: Escasa nubosidad a 3600 pies sobre el nivel del aeródromo
Nubes: Nubosidad parcial a 8000 pies sobre el nivel del aeródromo
Nubes: Nublado a 20000 pies sobre el nivel del aeródromo
Temperatura: 15 °C
Rocío: 10 °C
Humedad_relativa: 72%
Presión: 1003 hPa
METAR del 27-02-2024 a las 12:00 UTC
Para mayor información visite www.meteochile.gob.cl
METAR SCGZ 271200Z 09002KT 9999 FEW036 BKN200 14/09 Q1004
Viento: dirección 090 grados, velocidad 2 nudos
Visibilidad: 10 km o más
Nubes: Escasa nubosidad a 3600 pies sobre el nivel del aeródromo
Nubes: Nublado a 20000 pies sobre el nivel del aeródromo
Temperatura: 14 °C
Rocío: 9 °C
Humedad_relativa: 72%
Presión: 1004 hPa